sensor_id;sensor_type;location;lat;lon;timestamp;pressure;altitude;pressure_sealevel;temperature;humidity
77077;BME280;66003;52.286;104.306;2023-06-10T00:00:41;95738.19;;;41.78;10.94
77077;BME280;66003;52.286;104.306;2023-06-10T00:03:08;95731.91;;;41.58;11.42
77077;BME280;66003;52.286;104.306;2023-06-10T00:05:35;95747.47;;;42.33;10.97
77077;BME280;66003;52.286;104.306;2023-06-10T00:08:02;95747.34;;;43.40;10.98
77077;BME280;66003;52.286;104.306;2023-06-10T00:10:35;95745.25;;;44.24;10.18
77077;BME280;66003;52.286;104.306;2023-06-10T00:13:03;95749.38;;;43.96;10.42
77077;BME280;66003;52.286;104.306;2023-06-10T00:15:31;95744.28;;;43.77;10.18
77077;BME280;66003;52.286;104.306;2023-06-10T00:17:57;95745.50;;;43.20;10.89
77077;BME280;66003;52.286;104.306;2023-06-10T00:20:23;95746.34;;;43.60;10.19
77077;BME280;66003;52.286;104.306;2023-06-10T00:22:50;95730.97;;;43.61;10.71
77077;BME280;66003;52.286;104.306;2023-06-10T00:25:16;95731.69;;;44.06;10.59
77077;BME280;66003;52.286;104.306;2023-06-10T00:27:43;95720.44;;;44.12;10.01
77077;BME280;66003;52.286;104.306;2023-06-10T00:30:09;95734.97;;;44.33;10.13
77077;BME280;66003;52.286;104.306;2023-06-10T00:32:37;95738.13;;;43.73;10.50
77077;BME280;66003;52.286;104.306;2023-06-10T00:35:04;95733.94;;;42.96;10.22
77077;BME280;66003;52.286;104.306;2023-06-10T00:37:30;95746.44;;;42.78;10.45
77077;BME280;66003;52.286;104.306;2023-06-10T00:39:56;95741.72;;;42.47;10.98
77077;BME280;66003;52.286;104.306;2023-06-10T00:42:24;95761.78;;;42.88;10.40
77077;BME280;66003;52.286;104.306;2023-06-10T00:44:54;95743.66;;;42.90;10.66
77077;BME280;66003;52.286;104.306;2023-06-10T00:47:20;95746.56;;;43.40;10.49
77077;BME280;66003;52.286;104.306;2023-06-10T00:49:49;95760.41;;;43.99;9.80
77077;BME280;66003;52.286;104.306;2023-06-10T00:52:18;95765.41;;;44.51;9.63
77077;BME280;66003;52.286;104.306;2023-06-10T00:54:46;95746.84;;;45.24;9.40
77077;BME280;66003;52.286;104.306;2023-06-10T00:57:12;95770.78;;;45.89;9.56
77077;BME280;66003;52.286;104.306;2023-06-10T00:59:47;95753.63;;;47.16;8.97
77077;BME280;66003;52.286;104.306;2023-06-10T01:02:13;95752.63;;;47.32;8.45
77077;BME280;66003;52.286;104.306;2023-06-10T01:04:40;95761.66;;;47.31;8.50
77077;BME280;66003;52.286;104.306;2023-06-10T01:07:26;95760.69;;;48.05;8.21
77077;BME280;66003;52.286;104.306;2023-06-10T01:10:23;95754.84;;;48.43;7.84
77077;BME280;66003;52.286;104.306;2023-06-10T01:12:57;95752.03;;;48.56;8.17
77077;BME280;66003;52.286;104.306;2023-06-10T01:15:25;95744.22;;;47.27;8.74
77077;BME280;66003;52.286;104.306;2023-06-10T01:20:23;95734.28;;;46.83;8.45
77077;BME280;66003;52.286;104.306;2023-06-10T01:22:50;95733.00;;;45.86;9.30
77077;BME280;66003;52.286;104.306;2023-06-10T01:25:17;95750.03;;;46.78;8.95
77077;BME280;66003;52.286;104.306;2023-06-10T01:27:47;95748.38;;;47.58;8.77
77077;BME280;66003;52.286;104.306;2023-06-10T01:30:18;95748.47;;;47.52;8.62
77077;BME280;66003;52.286;104.306;2023-06-10T01:32:50;95738.47;;;47.64;8.38
77077;BME280;66003;52.286;104.306;2023-06-10T01:35:17;95740.84;;;48.05;8.00
77077;BME280;66003;52.286;104.306;2023-06-10T01:37:46;95742.72;;;47.90;8.29
77077;BME280;66003;52.286;104.306;2023-06-10T01:40:16;95746.47;;;48.11;8.35
77077;BME280;66003;52.286;104.306;2023-06-10T01:42:42;95734.09;;;48.88;8.04
77077;BME280;66003;52.286;104.306;2023-06-10T01:45:09;95739.69;;;49.48;7.88
77077;BME280;66003;52.286;104.306;2023-06-10T01:47:35;95729.69;;;49.88;7.62
77077;BME280;66003;52.286;104.306;2023-06-10T01:50:01;95721.63;;;50.29;7.52
77077;BME280;66003;52.286;104.306;2023-06-10T01:52:32;95724.59;;;50.51;7.27
77077;BME280;66003;52.286;104.306;2023-06-10T01:54:58;95727.50;;;50.59;7.14
77077;BME280;66003;52.286;104.306;2023-06-10T01:57:24;95721.41;;;50.55;7.54
77077;BME280;66003;52.286;104.306;2023-06-10T01:59:50;95735.22;;;50.51;7.60
77077;BME280;66003;52.286;104.306;2023-06-10T02:02:16;95733.75;;;50.29;7.42
77077;BME280;66003;52.286;104.306;2023-06-10T02:04:43;95727.66;;;49.76;7.78
77077;BME280;66003;52.286;104.306;2023-06-10T02:07:09;95728.44;;;49.56;7.58
77077;BME280;66003;52.286;104.306;2023-06-10T02:09:35;95719.78;;;48.93;7.82
77077;BME280;66003;52.286;104.306;2023-06-10T02:12:03;95724.44;;;49.38;7.59
77077;BME280;66003;52.286;104.306;2023-06-10T02:14:31;95728.34;;;50.39;7.11
77077;BME280;66003;52.286;104.306;2023-06-10T02:16:58;95723.47;;;50.90;7.34
77077;BME280;66003;52.286;104.306;2023-06-10T02:19:24;95718.88;;;50.80;6.88
77077;BME280;66003;52.286;104.306;2023-06-10T02:21:52;95734.41;;;50.14;7.41
77077;BME280;66003;52.286;104.306;2023-06-10T02:24:19;95723.00;;;49.44;7.39
77077;BME280;66003;52.286;104.306;2023-06-10T02:26:45;95720.13;;;50.28;7.03
77077;BME280;66003;52.286;104.306;2023-06-10T02:29:12;95737.16;;;49.58;6.97
77077;BME280;66003;52.286;104.306;2023-06-10T02:31:38;95724.47;;;50.00;7.15
77077;BME280;66003;52.286;104.306;2023-06-10T02:34:05;95724.06;;;50.25;7.33
77077;BME280;66003;52.286;104.306;2023-06-10T02:36:31;95727.94;;;50.35;7.13
77077;BME280;66003;52.286;104.306;2023-06-10T02:38:57;95730.25;;;50.15;7.37
77077;BME280;66003;52.286;104.306;2023-06-10T02:41:23;95719.53;;;50.29;7.15
77077;BME280;66003;52.286;104.306;2023-06-10T02:43:50;95720.34;;;49.46;7.03
77077;BME280;66003;52.286;104.306;2023-06-10T02:46:17;95723.09;;;48.84;8.23
77077;BME280;66003;52.286;104.306;2023-06-10T02:48:43;95700.25;;;48.90;8.06
77077;BME280;66003;52.286;104.306;2023-06-10T02:51:10;95697.16;;;48.27;7.92
77077;BME280;66003;52.286;104.306;2023-06-10T02:53:36;95702.66;;;47.67;8.14
77077;BME280;66003;52.286;104.306;2023-06-10T02:56:03;95711.78;;;46.28;9.04
77077;BME280;66003;52.286;104.306;2023-06-10T02:58:29;95732.28;;;42.56;10.92
77077;BME280;66003;52.286;104.306;2023-06-10T03:00:55;95724.28;;;40.20;12.52
77077;BME280;66003;52.286;104.306;2023-06-10T03:03:22;95730.19;;;38.69;13.65
77077;BME280;66003;52.286;104.306;2023-06-10T03:05:48;95720.06;;;37.25;14.97
77077;BME280;66003;52.286;104.306;2023-06-10T03:08:14;95733.28;;;36.51;15.40
77077;BME280;66003;52.286;104.306;2023-06-10T03:10:40;95716.66;;;36.02;15.75
77077;BME280;66003;52.286;104.306;2023-06-10T03:13:07;95734.69;;;35.48;16.05
77077;BME280;66003;52.286;104.306;2023-06-10T03:15:33;95731.81;;;35.30;16.42
77077;BME280;66003;52.286;104.306;2023-06-10T03:18:00;95734.34;;;34.94;17.01
77077;BME280;66003;52.286;104.306;2023-06-10T03:20:26;95733.44;;;34.53;17.24
77077;BME280;66003;52.286;104.306;2023-06-10T03:22:53;95733.47;;;34.40;17.80
77077;BME280;66003;52.286;104.306;2023-06-10T03:25:19;95721.66;;;34.15;17.60
77077;BME280;66003;52.286;104.306;2023-06-10T03:27:46;95708.63;;;33.77;18.02
77077;BME280;66003;52.286;104.306;2023-06-10T03:30:13;95716.50;;;33.91;18.01
77077;BME280;66003;52.286;104.306;2023-06-10T03:32:40;95684.00;;;33.66;18.91
77077;BME280;66003;52.286;104.306;2023-06-10T03:35:07;95703.38;;;34.04;19.70
77077;BME280;66003;52.286;104.306;2023-06-10T03:37:33;95716.94;;;34.37;18.09
77077;BME280;66003;52.286;104.306;2023-06-10T03:40:00;95704.78;;;34.22;17.81
77077;BME280;66003;52.286;104.306;2023-06-10T03:42:26;95705.09;;;34.24;17.73
77077;BME280;66003;52.286;104.306;2023-06-10T03:44:52;95724.44;;;34.15;18.31
77077;BME280;66003;52.286;104.306;2023-06-10T03:47:18;95710.66;;;33.51;18.40
77077;BME280;66003;52.286;104.306;2023-06-10T03:49:45;95731.38;;;33.72;19.00
77077;BME280;66003;52.286;104.306;2023-06-10T03:52:11;95724.47;;;33.89;18.73
77077;BME280;66003;52.286;104.306;2023-06-10T03:54:37;95729.47;;;33.56;18.40
77077;BME280;66003;52.286;104.306;2023-06-10T03:57:04;95737.91;;;33.40;19.22
77077;BME280;66003;52.286;104.306;2023-06-10T03:59:31;95713.69;;;33.03;19.15
77077;BME280;66003;52.286;104.306;2023-06-10T04:01:58;95733.09;;;33.15;19.40
77077;BME280;66003;52.286;104.306;2023-06-10T04:04:24;95721.91;;;33.19;19.40
77077;BME280;66003;52.286;104.306;2023-06-10T04:06:50;95720.72;;;33.32;18.98
77077;BME280;66003;52.286;104.306;2023-06-10T04:09:17;95718.13;;;33.13;19.31
77077;BME280;66003;52.286;104.306;2023-06-10T04:11:44;95730.94;;;33.48;19.28
77077;BME280;66003;52.286;104.306;2023-06-10T04:14:10;95735.59;;;33.39;19.26
77077;BME280;66003;52.286;104.306;2023-06-10T04:16:36;95728.69;;;33.30;19.33
77077;BME280;66003;52.286;104.306;2023-06-10T04:19:04;95702.06;;;33.20;19.13
77077;BME280;66003;52.286;104.306;2023-06-10T04:21:30;95695.31;;;33.21;19.68
77077;BME280;66003;52.286;104.306;2023-06-10T04:23:56;95721.41;;;33.37;19.44
77077;BME280;66003;52.286;104.306;2023-06-10T04:26:23;95709.25;;;33.05;19.50
77077;BME280;66003;52.286;104.306;2023-06-10T04:28:49;95713.47;;;33.10;19.89
77077;BME280;66003;52.286;104.306;2023-06-10T04:31:15;95708.72;;;33.10;19.63
77077;BME280;66003;52.286;104.306;2023-06-10T04:33:41;95720.47;;;33.14;19.59
77077;BME280;66003;52.286;104.306;2023-06-10T04:36:08;95701.41;;;33.04;19.48
77077;BME280;66003;52.286;104.306;2023-06-10T04:38:34;95693.97;;;33.00;19.91
77077;BME280;66003;52.286;104.306;2023-06-10T04:41:00;95675.16;;;32.67;19.36
77077;BME280;66003;52.286;104.306;2023-06-10T04:43:26;95685.22;;;32.89;20.19
77077;BME280;66003;52.286;104.306;2023-06-10T04:45:54;95697.69;;;32.81;20.51
77077;BME280;66003;52.286;104.306;2023-06-10T04:48:21;95701.38;;;32.91;19.38
77077;BME280;66003;52.286;104.306;2023-06-10T04:50:49;95702.38;;;32.97;20.31
77077;BME280;66003;52.286;104.306;2023-06-10T04:53:16;95704.63;;;33.02;20.20
77077;BME280;66003;52.286;104.306;2023-06-10T04:55:42;95686.75;;;32.90;20.29
77077;BME280;66003;52.286;104.306;2023-06-10T04:58:09;95691.75;;;33.08;20.48
77077;BME280;66003;52.286;104.306;2023-06-10T05:00:36;95704.53;;;33.31;20.44
77077;BME280;66003;52.286;104.306;2023-06-10T05:03:02;95697.59;;;33.39;20.34
77077;BME280;66003;52.286;104.306;2023-06-10T05:05:28;95696.13;;;33.60;20.77
77077;BME280;66003;52.286;104.306;2023-06-10T05:07:54;95693.44;;;33.69;19.75
77077;BME280;66003;52.286;104.306;2023-06-10T05:10:20;95692.34;;;33.79;19.33
77077;BME280;66003;52.286;104.306;2023-06-10T05:12:47;95665.72;;;33.69;19.94
77077;BME280;66003;52.286;104.306;2023-06-10T05:15:13;95651.41;;;33.70;20.01
77077;BME280;66003;52.286;104.306;2023-06-10T05:17:39;95669.03;;;33.89;19.75
77077;BME280;66003;52.286;104.306;2023-06-10T05:20:06;95674.53;;;34.02;19.54
77077;BME280;66003;52.286;104.306;2023-06-10T05:22:32;95656.50;;;33.97;20.04
77077;BME280;66003;52.286;104.306;2023-06-10T05:24:58;95683.97;;;34.04;19.50
77077;BME280;66003;52.286;104.306;2023-06-10T05:27:24;95678.78;;;33.94;19.80
77077;BME280;66003;52.286;104.306;2023-06-10T05:29:51;95672.78;;;33.95;20.13
77077;BME280;66003;52.286;104.306;2023-06-10T05:32:18;95646.84;;;33.89;19.23
77077;BME280;66003;52.286;104.306;2023-06-10T05:34:44;95662.56;;;34.05;19.22
77077;BME280;66003;52.286;104.306;2023-06-10T05:37:12;95649.06;;;33.94;18.19
77077;BME280;66003;52.286;104.306;2023-06-10T05:39:39;95679.97;;;34.05;18.20
77077;BME280;66003;52.286;104.306;2023-06-10T05:42:08;95666.38;;;33.98;18.50
77077;BME280;66003;52.286;104.306;2023-06-10T05:44:34;95656.94;;;33.96;19.43
77077;BME280;66003;52.286;104.306;2023-06-10T05:47:01;95669.22;;;34.08;18.37
77077;BME280;66003;52.286;104.306;2023-06-10T05:49:27;95659.13;;;34.01;17.95
77077;BME280;66003;52.286;104.306;2023-06-10T05:51:53;95651.91;;;34.03;18.37
77077;BME280;66003;52.286;104.306;2023-06-10T05:54:21;95660.31;;;34.13;17.58
77077;BME280;66003;52.286;104.306;2023-06-10T05:56:48;95647.97;;;34.14;16.74
77077;BME280;66003;52.286;104.306;2023-06-10T05:59:14;95653.28;;;34.21;16.78
77077;BME280;66003;52.286;104.306;2023-06-10T06:01:40;95654.97;;;34.18;16.42
77077;BME280;66003;52.286;104.306;2023-06-10T06:04:06;95639.81;;;34.10;15.88
77077;BME280;66003;52.286;104.306;2023-06-10T06:06:32;95650.63;;;34.17;16.12
77077;BME280;66003;52.286;104.306;2023-06-10T06:08:59;95638.38;;;34.05;14.96
77077;BME280;66003;52.286;104.306;2023-06-10T06:11:25;95642.59;;;34.10;15.20
77077;BME280;66003;52.286;104.306;2023-06-10T06:13:52;95644.69;;;34.06;15.23
77077;BME280;66003;52.286;104.306;2023-06-10T06:16:19;95645.88;;;34.18;15.08
77077;BME280;66003;52.286;104.306;2023-06-10T06:18:45;95644.66;;;34.19;15.46
77077;BME280;66003;52.286;104.306;2023-06-10T06:21:11;95631.47;;;34.10;16.40
77077;BME280;66003;52.286;104.306;2023-06-10T06:23:37;95637.66;;;34.14;15.12
77077;BME280;66003;52.286;104.306;2023-06-10T06:26:03;95642.66;;;34.19;14.64
77077;BME280;66003;52.286;104.306;2023-06-10T06:28:30;95625.59;;;34.08;14.04
77077;BME280;66003;52.286;104.306;2023-06-10T06:30:57;95632.81;;;34.05;15.32
77077;BME280;66003;52.286;104.306;2023-06-10T06:33:23;95610.25;;;33.94;14.41
77077;BME280;66003;52.286;104.306;2023-06-10T06:35:53;95601.16;;;33.94;15.30
77077;BME280;66003;52.286;104.306;2023-06-10T06:38:19;95601.91;;;33.94;15.84
77077;BME280;66003;52.286;104.306;2023-06-10T06:40:45;95625.16;;;34.10;15.28
77077;BME280;66003;52.286;104.306;2023-06-10T06:43:11;95602.25;;;33.96;15.64
77077;BME280;66003;52.286;104.306;2023-06-10T06:45:37;95610.91;;;33.98;15.57
77077;BME280;66003;52.286;104.306;2023-06-10T06:48:05;95610.75;;;34.02;16.04
77077;BME280;66003;52.286;104.306;2023-06-10T06:50:31;95618.63;;;34.03;15.93
77077;BME280;66003;52.286;104.306;2023-06-10T06:52:57;95598.69;;;33.96;15.37
77077;BME280;66003;52.286;104.306;2023-06-10T06:55:23;95620.50;;;34.06;16.52
77077;BME280;66003;52.286;104.306;2023-06-10T06:57:50;95623.34;;;34.16;15.98
77077;BME280;66003;52.286;104.306;2023-06-10T07:00:16;95612.38;;;34.12;16.83
77077;BME280;66003;52.286;104.306;2023-06-10T07:02:42;95621.34;;;34.16;16.22
77077;BME280;66003;52.286;104.306;2023-06-10T07:05:08;95608.59;;;34.19;15.77
77077;BME280;66003;52.286;104.306;2023-06-10T07:07:35;95614.75;;;34.23;16.31
77077;BME280;66003;52.286;104.306;2023-06-10T07:10:01;95591.41;;;34.11;15.94
77077;BME280;66003;52.286;104.306;2023-06-10T07:12:30;95603.81;;;34.19;17.09
77077;BME280;66003;52.286;104.306;2023-06-10T07:14:56;95597.50;;;34.19;16.36
77077;BME280;66003;52.286;104.306;2023-06-10T07:17:23;95592.69;;;34.32;16.07
77077;BME280;66003;52.286;104.306;2023-06-10T07:19:49;95583.75;;;34.15;16.48
77077;BME280;66003;52.286;104.306;2023-06-10T07:22:17;95587.41;;;34.12;16.12
77077;BME280;66003;52.286;104.306;2023-06-10T07:24:43;95586.84;;;34.17;16.35
77077;BME280;66003;52.286;104.306;2023-06-10T07:27:09;95587.69;;;34.27;16.45
77077;BME280;66003;52.286;104.306;2023-06-10T07:29:36;95559.63;;;34.03;16.66
77077;BME280;66003;52.286;104.306;2023-06-10T07:32:03;95579.03;;;34.03;17.13
77077;BME280;66003;52.286;104.306;2023-06-10T07:34:30;95560.44;;;33.91;16.56
77077;BME280;66003;52.286;104.306;2023-06-10T07:36:56;95579.03;;;34.25;16.65
77077;BME280;66003;52.286;104.306;2023-06-10T07:39:22;95577.47;;;34.24;16.74
77077;BME280;66003;52.286;104.306;2023-06-10T07:41:49;95560.81;;;34.24;16.37
77077;BME280;66003;52.286;104.306;2023-06-10T07:44:15;95570.38;;;34.23;16.49
77077;BME280;66003;52.286;104.306;2023-06-10T07:46:41;95577.44;;;34.36;16.86
77077;BME280;66003;52.286;104.306;2023-06-10T07:49:08;95579.97;;;34.44;16.83
77077;BME280;66003;52.286;104.306;2023-06-10T07:51:34;95577.81;;;34.48;16.54
77077;BME280;66003;52.286;104.306;2023-06-10T07:54:00;95570.53;;;34.41;16.68
77077;BME280;66003;52.286;104.306;2023-06-10T07:56:26;95566.16;;;34.31;15.94
77077;BME280;66003;52.286;104.306;2023-06-10T07:58:53;95577.88;;;34.35;16.22
77077;BME280;66003;52.286;104.306;2023-06-10T08:01:19;95575.91;;;34.23;17.06
77077;BME280;66003;52.286;104.306;2023-06-10T08:03:45;95567.06;;;34.28;16.57
77077;BME280;66003;52.286;104.306;2023-06-10T08:06:11;95576.66;;;34.36;16.81
77077;BME280;66003;52.286;104.306;2023-06-10T08:08:37;95564.72;;;34.26;15.83
77077;BME280;66003;52.286;104.306;2023-06-10T08:11:10;95556.97;;;34.21;16.03
77077;BME280;66003;52.286;104.306;2023-06-10T08:13:36;95576.03;;;34.32;16.49
77077;BME280;66003;52.286;104.306;2023-06-10T08:16:04;95572.34;;;34.35;16.30
77077;BME280;66003;52.286;104.306;2023-06-10T08:18:30;95575.59;;;34.33;16.01
77077;BME280;66003;52.286;104.306;2023-06-10T08:20:57;95556.22;;;34.21;16.71
77077;BME280;66003;52.286;104.306;2023-06-10T08:23:23;95569.84;;;34.28;16.54
77077;BME280;66003;52.286;104.306;2023-06-10T08:25:49;95567.75;;;34.19;17.11
77077;BME280;66003;52.286;104.306;2023-06-10T08:28:16;95542.84;;;34.06;17.09
77077;BME280;66003;52.286;104.306;2023-06-10T08:30:43;95544.84;;;34.06;17.15
77077;BME280;66003;52.286;104.306;2023-06-10T08:33:09;95534.00;;;33.99;17.16
77077;BME280;66003;52.286;104.306;2023-06-10T08:35:35;95537.09;;;34.01;16.46
77077;BME280;66003;52.286;104.306;2023-06-10T08:38:01;95546.56;;;34.13;16.79
77077;BME280;66003;52.286;104.306;2023-06-10T08:40:28;95529.22;;;33.99;16.80
77077;BME280;66003;52.286;104.306;2023-06-10T08:43:06;95537.09;;;34.23;17.11
77077;BME280;66003;52.286;104.306;2023-06-10T08:45:35;95517.63;;;34.14;17.38
77077;BME280;66003;52.286;104.306;2023-06-10T08:48:05;95497.19;;;33.98;17.08
77077;BME280;66003;52.286;104.306;2023-06-10T08:50:35;95509.25;;;34.04;17.13
77077;BME280;66003;52.286;104.306;2023-06-10T08:53:05;95531.44;;;34.26;17.09
77077;BME280;66003;52.286;104.306;2023-06-10T08:55:38;95525.44;;;34.28;17.54
77077;BME280;66003;52.286;104.306;2023-06-10T08:58:07;95532.38;;;34.11;16.87
77077;BME280;66003;52.286;104.306;2023-06-10T09:00:34;95547.44;;;34.22;17.52
77077;BME280;66003;52.286;104.306;2023-06-10T09:03:04;95544.47;;;34.17;16.60
77077;BME280;66003;52.286;104.306;2023-06-10T09:05:33;95534.09;;;34.08;16.90
77077;BME280;66003;52.286;104.306;2023-06-10T09:08:00;95550.34;;;34.19;16.84
77077;BME280;66003;52.286;104.306;2023-06-10T09:10:27;95556.13;;;34.12;17.04
77077;BME280;66003;52.286;104.306;2023-06-10T09:12:53;95553.50;;;34.08;17.20
77077;BME280;66003;52.286;104.306;2023-06-10T09:15:20;95565.38;;;34.09;17.08
77077;BME280;66003;52.286;104.306;2023-06-10T09:17:46;95566.59;;;34.08;17.00
77077;BME280;66003;52.286;104.306;2023-06-10T09:20:12;95582.56;;;34.03;17.21
77077;BME280;66003;52.286;104.306;2023-06-10T09:22:39;95551.69;;;33.92;16.86
77077;BME280;66003;52.286;104.306;2023-06-10T09:25:07;95569.22;;;34.11;17.07
77077;BME280;66003;52.286;104.306;2023-06-10T09:27:51;95553.09;;;34.19;17.14
77077;BME280;66003;52.286;104.306;2023-06-10T09:30:34;95553.22;;;34.15;17.57
77077;BME280;66003;52.286;104.306;2023-06-10T09:33:09;95566.66;;;33.95;17.81
77077;BME280;66003;52.286;104.306;2023-06-10T09:35:35;95542.09;;;33.71;17.44
77077;BME280;66003;52.286;104.306;2023-06-10T09:38:02;95536.59;;;33.59;18.21
77077;BME280;66003;52.286;104.306;2023-06-10T09:40:29;95568.25;;;33.83;18.28
77077;BME280;66003;52.286;104.306;2023-06-10T09:42:59;95562.59;;;33.87;18.22
77077;BME280;66003;52.286;104.306;2023-06-10T09:45:31;95547.63;;;33.84;18.71
77077;BME280;66003;52.286;104.306;2023-06-10T09:47:58;95568.22;;;34.39;17.87
77077;BME280;66003;52.286;104.306;2023-06-10T09:50:24;95556.38;;;33.83;18.17
77077;BME280;66003;52.286;104.306;2023-06-10T09:52:51;95571.59;;;33.78;18.09
77077;BME280;66003;52.286;104.306;2023-06-10T09:55:18;95568.03;;;33.65;19.02
77077;BME280;66003;52.286;104.306;2023-06-10T09:57:49;95585.13;;;33.76;18.49
77077;BME280;66003;52.286;104.306;2023-06-10T10:00:16;95566.41;;;33.55;18.54
77077;BME280;66003;52.286;104.306;2023-06-10T10:02:51;95576.34;;;33.65;18.89
77077;BME280;66003;52.286;104.306;2023-06-10T10:05:19;95588.03;;;33.60;18.66
77077;BME280;66003;52.286;104.306;2023-06-10T10:07:47;95572.84;;;33.52;19.26
77077;BME280;66003;52.286;104.306;2023-06-10T10:10:15;95589.94;;;33.50;19.27
77077;BME280;66003;52.286;104.306;2023-06-10T10:12:42;95594.91;;;33.55;19.04
77077;BME280;66003;52.286;104.306;2023-06-10T10:15:10;95594.38;;;33.48;19.44
77077;BME280;66003;52.286;104.306;2023-06-10T10:17:40;95587.53;;;33.40;19.39
77077;BME280;66003;52.286;104.306;2023-06-10T10:20:13;95602.59;;;33.39;19.60
77077;BME280;66003;52.286;104.306;2023-06-10T10:22:43;95606.00;;;33.43;19.25
77077;BME280;66003;52.286;104.306;2023-06-10T10:25:16;95603.47;;;33.48;19.67
77077;BME280;66003;52.286;104.306;2023-06-10T10:27:51;95582.63;;;33.44;19.00
77077;BME280;66003;52.286;104.306;2023-06-10T10:30:21;95579.75;;;33.22;19.95
77077;BME280;66003;52.286;104.306;2023-06-10T10:35:20;95606.25;;;33.23;20.54
77077;BME280;66003;52.286;104.306;2023-06-10T10:37:53;95589.09;;;33.15;19.99
77077;BME280;66003;52.286;104.306;2023-06-10T10:40:24;95584.09;;;33.10;20.46
77077;BME280;66003;52.286;104.306;2023-06-10T10:42:52;95590.50;;;33.07;20.06
77077;BME280;66003;52.286;104.306;2023-06-10T10:45:21;95575.59;;;32.92;20.78
77077;BME280;66003;52.286;104.306;2023-06-10T10:47:52;95607.91;;;33.08;20.78
77077;BME280;66003;52.286;104.306;2023-06-10T10:50:20;95598.28;;;32.87;20.94
77077;BME280;66003;52.286;104.306;2023-06-10T10:52:55;95609.25;;;33.03;21.03
77077;BME280;66003;52.286;104.306;2023-06-10T10:55:23;95610.91;;;32.88;20.96
77077;BME280;66003;52.286;104.306;2023-06-10T10:57:59;95605.69;;;32.90;20.40
77077;BME280;66003;52.286;104.306;2023-06-10T11:00:32;95622.41;;;32.99;20.75
77077;BME280;66003;52.286;104.306;2023-06-10T11:03:08;95626.06;;;32.96;20.86
77077;BME280;66003;52.286;104.306;2023-06-10T11:05:43;95626.50;;;32.82;21.23
77077;BME280;66003;52.286;104.306;2023-06-10T11:08:15;95604.97;;;32.60;20.78
77077;BME280;66003;52.286;104.306;2023-06-10T11:10:51;95617.19;;;32.76;21.18
77077;BME280;66003;52.286;104.306;2023-06-10T11:13:21;95626.19;;;32.51;21.15
77077;BME280;66003;52.286;104.306;2023-06-10T11:15:49;95613.97;;;32.36;21.19
77077;BME280;66003;52.286;104.306;2023-06-10T11:29:06;95617.75;;;32.13;21.35
77077;BME280;66003;52.286;104.306;2023-06-10T11:31:45;95607.13;;;31.82;21.53
77077;BME280;66003;52.286;104.306;2023-06-10T11:34:13;95614.06;;;31.58;21.59
77077;BME280;66003;52.286;104.306;2023-06-10T11:36:41;95625.53;;;31.56;21.45
77077;BME280;66003;52.286;104.306;2023-06-10T11:39:09;95644.44;;;31.42;21.78
77077;BME280;66003;52.286;104.306;2023-06-10T11:41:37;95639.25;;;31.28;22.72
77077;BME280;66003;52.286;104.306;2023-06-10T11:44:08;95645.31;;;31.22;21.95
77077;BME280;66003;52.286;104.306;2023-06-10T11:46:35;95645.34;;;31.03;22.39
77077;BME280;66003;52.286;104.306;2023-06-10T11:49:02;95631.84;;;30.88;22.43
77077;BME280;66003;52.286;104.306;2023-06-10T11:51:34;95645.88;;;30.78;22.25
77077;BME280;66003;52.286;104.306;2023-06-10T11:54:02;95654.72;;;30.69;22.65
77077;BME280;66003;52.286;104.306;2023-06-10T11:56:30;95646.31;;;30.57;22.81
77077;BME280;66003;52.286;104.306;2023-06-10T11:59:02;95653.31;;;30.61;22.68
77077;BME280;66003;52.286;104.306;2023-06-10T12:01:32;95664.25;;;30.45;22.93
77077;BME280;66003;52.286;104.306;2023-06-10T12:04:01;95663.06;;;30.26;22.97
77077;BME280;66003;52.286;104.306;2023-06-10T12:06:38;95666.91;;;30.32;22.98
77077;BME280;66003;52.286;104.306;2023-06-10T12:09:06;95675.72;;;30.24;22.77
77077;BME280;66003;52.286;104.306;2023-06-10T12:11:33;95656.88;;;29.99;22.90
77077;BME280;66003;52.286;104.306;2023-06-10T12:13:59;95673.50;;;29.92;23.06
77077;BME280;66003;52.286;104.306;2023-06-10T12:16:26;95679.84;;;29.89;23.43
77077;BME280;66003;52.286;104.306;2023-06-10T12:19:01;95689.63;;;29.93;23.08
77077;BME280;66003;52.286;104.306;2023-06-10T12:21:29;95674.44;;;29.62;23.33
77077;BME280;66003;52.286;104.306;2023-06-10T12:24:05;95685.69;;;29.71;23.31
77077;BME280;66003;52.286;104.306;2023-06-10T12:26:42;95661.03;;;29.37;23.67
77077;BME280;66003;52.286;104.306;2023-06-10T12:29:18;95692.19;;;29.30;23.80
77077;BME280;66003;52.286;104.306;2023-06-10T12:32:01;95679.13;;;29.11;23.59
77077;BME280;66003;52.286;104.306;2023-06-10T12:34:37;95702.00;;;29.04;23.88
77077;BME280;66003;52.286;104.306;2023-06-10T12:37:06;95707.28;;;28.92;24.15
77077;BME280;66003;52.286;104.306;2023-06-10T12:39:35;95708.94;;;28.86;24.11
77077;BME280;66003;52.286;104.306;2023-06-10T12:42:01;95704.38;;;28.72;23.97
77077;BME280;66003;52.286;104.306;2023-06-10T12:44:33;95702.81;;;28.71;23.19
77077;BME280;66003;52.286;104.306;2023-06-10T12:47:06;95702.16;;;28.60;23.90
77077;BME280;66003;52.286;104.306;2023-06-10T12:49:33;95694.53;;;28.41;23.88
77077;BME280;66003;52.286;104.306;2023-06-10T12:52:00;95700.19;;;28.26;23.84
77077;BME280;66003;52.286;104.306;2023-06-10T12:54:27;95695.19;;;28.14;24.07
77077;BME280;66003;52.286;104.306;2023-06-10T12:56:53;95700.81;;;28.00;24.21
77077;BME280;66003;52.286;104.306;2023-06-10T12:59:19;95705.19;;;27.94;23.97